DLH3ME EDDC-LEPA
Flight info
| Callsign | DLH3ME |
|---|---|
| Flight time | N/A |
| Altitude | 40000 |
| Route | MAREM8E MAREM DCT YUJKI DCT PEMEL DCT RUDAP DCT EBEDA DCT BADVI DCT BERAS DCT OLPIX/N0465F390 DCT EKPEB/N0470F410 DCT PIDAD DCT TALEP DCT RARQU DCT BALEN/N0432F290 UT250 RIXOT |
| Aircraft | A339/H-SADE1E2E3GHIJ3J5M1P2RWXY/LB2D1 |
Departure
| Time | 2026-05-08 12:46 |
|---|---|
| Airport | Dresden Airport (EDDC) |
Arrival
| Time | N/A |
|---|---|
| Airport | Palma de Mallorca Airport (LEPA) |
| Time | Latitude | Longitude | Altitude | Speed | Heading |
|---|---|---|---|---|---|
| 2026-05-08 12:27 | 51.12897 | 13.76637 | 755 ft | 0 kts | 130° |
| 2026-05-08 12:36 | 51.12901 | 13.76627 | 751 ft | 2 kts | 142° |
| 2026-05-08 12:37 | 51.12919 | 13.76618 | 750 ft | 2 kts | 56° |
| 2026-05-08 12:37 | 51.12910 | 13.76616 | 750 ft | 2 kts | 191° |
| 2026-05-08 12:37 | 51.12920 | 13.76618 | 750 ft | 0 kts | 55° |
| 2026-05-08 12:40 | 51.12920 | 13.76619 | 755 ft | 1 kts | 52° |
| 2026-05-08 12:40 | 51.12945 | 13.76593 | 752 ft | 5 kts | 303° |
| 2026-05-08 12:41 | 51.12921 | 13.76556 | 748 ft | 6 kts | 218° |
| 2026-05-08 12:41 | 51.12888 | 13.76515 | 750 ft | 6 kts | 218° |
| 2026-05-08 12:41 | 51.12859 | 13.76479 | 749 ft | 4 kts | 218° |
| 2026-05-08 12:41 | 51.12821 | 13.76432 | 752 ft | 13 kts | 218° |
| 2026-05-08 12:42 | 51.12738 | 13.76319 | 754 ft | 17 kts | 221° |
| 2026-05-08 12:42 | 51.12648 | 13.76195 | 756 ft | 17 kts | 220° |
| 2026-05-08 12:42 | 51.12558 | 13.76072 | 757 ft | 17 kts | 221° |
| 2026-05-08 12:42 | 51.12471 | 13.75954 | 768 ft | 16 kts | 220° |
| 2026-05-08 12:43 | 51.12385 | 13.75835 | 770 ft | 17 kts | 223° |
| 2026-05-08 12:43 | 51.12385 | 13.75701 | 770 ft | 0 kts | 288° |
| 2026-05-08 12:44 | 51.12388 | 13.75690 | 770 ft | 3 kts | 288° |
| 2026-05-08 12:44 | 51.12408 | 13.75613 | 771 ft | 14 kts | 296° |
| 2026-05-08 12:45 | 51.12489 | 13.75523 | 774 ft | 14 kts | 7° |
| 2026-05-08 12:45 | 51.12508 | 13.75538 | 774 ft | 0 kts | 32° |
| 2026-05-08 12:45 | 51.12564 | 13.75608 | 772 ft | 37 kts | 39° |
| 2026-05-08 12:46 | 51.12949 | 13.76128 | 753 ft | 106 kts | 40° |
| 2026-05-08 12:46 | 51.13654 | 13.77095 | 742 ft | 159 kts | 41° |
| 2026-05-08 12:46 | 51.14565 | 13.78375 | 951 ft | 181 kts | 42° |
| 2026-05-08 12:46 | 51.15458 | 13.79686 | 1672 ft | 172 kts | 43° |
| 2026-05-08 12:47 | 51.16338 | 13.80953 | 2379 ft | 169 kts | 41° |
| 2026-05-08 12:47 | 51.17262 | 13.82238 | 2772 ft | 184 kts | 40° |
| 2026-05-08 12:47 | 51.18281 | 13.83628 | 3063 ft | 202 kts | 40° |
| 2026-05-08 12:47 | 51.19402 | 13.85148 | 3355 ft | 219 kts | 40° |
| 2026-05-08 12:48 | 51.20485 | 13.86636 | 4477 ft | 178 kts | 41° |
| 2026-05-08 12:48 | 51.21292 | 13.88067 | 5043 ft | 192 kts | 61° |
| 2026-05-08 12:48 | 51.21538 | 13.90439 | 4548 ft | 245 kts | 104° |
| 2026-05-08 12:48 | 51.20891 | 13.92955 | 5022 ft | 252 kts | 118° |
| 2026-05-08 12:49 | 51.19947 | 13.95207 | 5904 ft | 235 kts | 129° |
| 2026-05-08 12:49 | 51.18802 | 13.97119 | 6378 ft | 242 kts | 141° |
| 2026-05-08 12:49 | 51.17402 | 13.98554 | 6996 ft | 243 kts | 151° |
| 2026-05-08 12:49 | 51.15795 | 13.99681 | 7147 ft | 262 kts | 168° |
| 2026-05-08 12:50 | 51.13954 | 14.00035 | 7415 ft | 276 kts | 177° |
| 2026-05-08 12:50 | 51.12017 | 14.00135 | 7944 ft | 280 kts | 179° |
| 2026-05-08 12:50 | 51.10063 | 14.00186 | 8538 ft | 282 kts | 180° |
| 2026-05-08 12:50 | 51.08080 | 14.00229 | 9085 ft | 286 kts | 180° |
| 2026-05-08 12:51 | 51.06078 | 14.00273 | 9660 ft | 289 kts | 180° |
| 2026-05-08 12:51 | 51.03368 | 14.00334 | 10369 ft | 295 kts | 180° |
| 2026-05-08 12:51 | 51.03147 | 14.00340 | 10383 ft | 297 kts | 180° |
| 2026-05-08 12:52 | 51.02780 | 14.00348 | 10405 ft | 300 kts | 180° |
| 2026-05-08 12:52 | 51.02676 | 14.00351 | 10407 ft | 301 kts | 180° |
| 2026-05-08 12:52 | 51.02561 | 14.00353 | 10409 ft | 302 kts | 180° |
| 2026-05-08 12:53 | 51.02491 | 14.00355 | 10416 ft | 303 kts | 180° |
| 2026-05-08 12:54 | 51.02420 | 14.00357 | 10435 ft | 304 kts | 180° |
| 2026-05-08 12:54 | 51.02280 | 14.00360 | 10439 ft | 305 kts | 180° |
| 2026-05-08 12:54 | 51.02056 | 14.00365 | 10453 ft | 306 kts | 180° |
| 2026-05-08 12:55 | 51.01878 | 14.00369 | 10482 ft | 307 kts | 180° |